Terminal Aerodrome Forecast
Issued by NWS Mobile, AL

Home | Current Version | Previous Version | Text Only | Print | Product List | Glossary On
Versions: 1 2 3 4 5 6 7 8 9 10 11 12
000
FTUS44 KMOB 171735
TAFPNS
TAF
KPNS 171735Z 1718/1818 12004KT P6SM SKC
     FM180300 15004KT P6SM FEW050 SCT250
     FM180900 18006KT P6SM BKN030
     FM181500 21010KT P6SM BKN030=

USA.gov is the U.S. government's official web portal to all federal, state and local government web resources and services.